Aegis — CFN6336 — position and weather

sailwx.info

Track history (hours):
 
Tides and Currents Weather Stations Pressure Air Temp Water Temp Dewpoint Dewpoint Depression Visibility Wind Speed Wind Dir Waves Ship Positions

Aegis

Last reported at 2018-Aug-11 18:10 UTC. Time now 2018-Aug-19 15:20 UTC.
Position N 48°24' W 123°18'.

Length 12 m.

Type: Pleasure craft. MMSI: 316013873.

Date/timePositionNaut miles runAvg speedWind from/ knotsBaromVisibWave heightAir tempDewpointWater temp
2018-Aug-11 18:10N 48°24' W 123°18'1 6.9
2018-Aug-11 18:00N 48°26' W 123°17'4 7.1
2018-Aug-11 17:30N 48°29' W 123°16'10 1.7
2018-Aug-11 11:48N 48°39' W 123°20'0 0.0
2018-Aug-11 11:21N 48°39' W 123°20'0 0.0
2018-Aug-11 10:54N 48°39' W 123°20'0 0.0
2018-Aug-11 10:30N 48°39' W 123°20'0 0.0
2018-Aug-11 09:06N 48°39' W 123°20'0 0.0
2018-Aug-11 08:14N 48°39' W 123°20'0 0.0
2018-Aug-11 07:36N 48°39' W 123°20'0 0.0
2018-Aug-11 07:18N 48°39' W 123°20'0 0.0
2018-Aug-11 07:00N 48°39' W 123°20'0 0.0
2018-Aug-11 06:30N 48°39' W 123°20'0 0.0
2018-Aug-11 05:43N 48°39' W 123°20'0 0.0
2018-Aug-11 05:07N 48°39' W 123°20'0 0.0
2018-Aug-11 03:10N 48°39' W 123°20'0 0.0
2018-Aug-11 02:43N 48°39' W 123°20'0 0.0
2018-Aug-11 02:13N 48°39' W 123°20'0 0.0
2018-Aug-11 01:46N 48°39' W 123°20'0 0.0
2018-Aug-11 00:37N 48°39' W 123°20'0 0.0
2018-Aug-11 00:13N 48°39' W 123°20'0 0.0
2018-Aug-10 22:07N 48°39' W 123°20'0 0.0
2018-Aug-10 21:55N 48°39' W 123°20'0 0.0
2018-Aug-10 19:31N 48°39' W 123°20'0 0.0
2018-Aug-10 19:13N 48°39' W 123°20'0 0.0
2018-Aug-10 19:00N 48°39' W 123°20'3 5.3
2018-Aug-10 18:30N 48°41' W 123°21'5 7.1
2018-Aug-10 17:50N 48°46' W 123°22'3 7.0
2018-Aug-10 17:26N 48°48' W 123°23'23 1.5
2018-Aug-10 02:04N 49°08' W 123°42'3 5.7
2018-Aug-10 01:34N 49°11' W 123°43'1 6.9
2018-Aug-10 01:29N 49°11' W 123°44'56 6.7
2018-Aug-09 17:06N 49°48' W 124°48'1 7.3
2018-Aug-09 16:55N 49°49' W 124°49'4 7.3
2018-Aug-09 16:24N 49°52' W 124°53'4 7.0
2018-Aug-09 15:50N 49°55' W 124°57'4 6.7
2018-Aug-09 15:17N 49°58' W 125°00'2 6.8
2018-Aug-09 14:58N 49°60' W 125°03'4 7.3
2018-Aug-09 14:27N 50°03' W 125°06'3 7.3
2018-Aug-09 14:01N 50°05' W 125°09'2 3.0
2018-Aug-09 13:30N 50°06' W 125°12'0 0.0
2018-Aug-09 13:00N 50°06' W 125°12'0 0.0
2018-Aug-09 12:30N 50°06' W 125°12'0 0.0
2018-Aug-09 12:00N 50°06' W 125°12'0 0.0
2018-Aug-09 11:30N 50°06' W 125°12'0 0.0
2018-Aug-09 11:00N 50°06' W 125°12'0 0.0
2018-Aug-09 10:30N 50°06' W 125°12'0 0.0
2018-Aug-09 09:57N 50°06' W 125°12'0 0.0
2018-Aug-09 09:30N 50°06' W 125°12'0 0.0
2018-Aug-09 09:00N 50°06' W 125°12'0 0.0
2018-Aug-09 08:30N 50°06' W 125°12'0 0.0
2018-Aug-09 08:00N 50°06' W 125°12'0 0.0
2018-Aug-09 07:30N 50°06' W 125°12'0 0.0
2018-Aug-09 07:00N 50°06' W 125°12'0 0.0
2018-Aug-09 06:30N 50°06' W 125°12'0 0.0
2018-Aug-09 06:00N 50°06' W 125°12'0 0.0
2018-Aug-09 05:30N 50°06' W 125°12'0 0.0
2018-Aug-09 05:00N 50°06' W 125°12'0 0.0
2018-Aug-09 04:30N 50°06' W 125°12'0 0.0
2018-Aug-09 03:57N 50°06' W 125°12'0 0.0
2018-Aug-09 03:30N 50°06' W 125°12'0 0.0
2018-Aug-09 03:00N 50°06' W 125°12'0 0.0
2018-Aug-09 02:30N 50°06' W 125°12'0 0.0
2018-Aug-09 02:00N 50°06' W 125°12'0 0.0
2018-Aug-09 01:30N 50°06' W 125°12'0 0.0
2018-Aug-09 01:00N 50°06' W 125°12'0 0.0
2018-Aug-09 00:30N 50°06' W 125°12'0 0.0
2018-Aug-09 00:00N 50°06' W 125°12'0 0.0
2018-Aug-08 23:30N 50°06' W 125°12'1 1.4
2018-Aug-08 23:00N 50°06' W 125°12'3 6.4
2018-Aug-08 22:30N 50°09' W 125°09'3 6.3
2018-Aug-08 22:00N 50°12' W 125°08'3 6.7
2018-Aug-08 21:29N 50°15' W 125°11'2 0.0
2018-Aug-06 19:50N 50°16' W 125°13'  
Track history (hours):
 
Tides and Currents Weather Stations Pressure Air Temp Water Temp Dewpoint Dewpoint Depression Visibility Wind Speed Wind Dir Waves Ship Positions

Aegis

Last reported at 2018-Aug-11 18:10 UTC. Time now 2018-Aug-19 15:20 UTC.
Position N 48°24' W 123°18'.

Length 12 m.

Type: Pleasure craft. MMSI: 316013873.

Date/timePositionNaut miles runAvg speedWind from/ knotsBaromVisibWave heightAir tempDewpointWater temp
2018-Aug-11 18:10N 48°24' W 123°18'1 6.9
2018-Aug-11 18:00N 48°26' W 123°17'4 7.1
2018-Aug-11 17:30N 48°29' W 123°16'10 1.7
2018-Aug-11 11:48N 48°39' W 123°20'0 0.0
2018-Aug-11 11:21N 48°39' W 123°20'0 0.0
2018-Aug-11 10:54N 48°39' W 123°20'0 0.0
2018-Aug-11 10:30N 48°39' W 123°20'0 0.0
2018-Aug-11 09:06N 48°39' W 123°20'0 0.0
2018-Aug-11 08:14N 48°39' W 123°20'0 0.0
2018-Aug-11 07:36N 48°39' W 123°20'0 0.0
2018-Aug-11 07:18N 48°39' W 123°20'0 0.0
2018-Aug-11 07:00N 48°39' W 123°20'0 0.0
2018-Aug-11 06:30N 48°39' W 123°20'0 0.0
2018-Aug-11 05:43N 48°39' W 123°20'0 0.0
2018-Aug-11 05:07N 48°39' W 123°20'0 0.0
2018-Aug-11 03:10N 48°39' W 123°20'0 0.0
2018-Aug-11 02:43N 48°39' W 123°20'0 0.0
2018-Aug-11 02:13N 48°39' W 123°20'0 0.0
2018-Aug-11 01:46N 48°39' W 123°20'0 0.0
2018-Aug-11 00:37N 48°39' W 123°20'0 0.0
2018-Aug-11 00:13N 48°39' W 123°20'0 0.0
2018-Aug-10 22:07N 48°39' W 123°20'0 0.0
2018-Aug-10 21:55N 48°39' W 123°20'0 0.0
2018-Aug-10 19:31N 48°39' W 123°20'0 0.0
2018-Aug-10 19:13N 48°39' W 123°20'0 0.0
2018-Aug-10 19:00N 48°39' W 123°20'3 5.3
2018-Aug-10 18:30N 48°41' W 123°21'5 7.1
2018-Aug-10 17:50N 48°46' W 123°22'3 7.0
2018-Aug-10 17:26N 48°48' W 123°23'23 1.5
2018-Aug-10 02:04N 49°08' W 123°42'3 5.7
2018-Aug-10 01:34N 49°11' W 123°43'1 6.9
2018-Aug-10 01:29N 49°11' W 123°44'56 6.7
2018-Aug-09 17:06N 49°48' W 124°48'1 7.3
2018-Aug-09 16:55N 49°49' W 124°49'4 7.3
2018-Aug-09 16:24N 49°52' W 124°53'4 7.0
2018-Aug-09 15:50N 49°55' W 124°57'4 6.7
2018-Aug-09 15:17N 49°58' W 125°00'2 6.8
2018-Aug-09 14:58N 49°60' W 125°03'4 7.3
2018-Aug-09 14:27N 50°03' W 125°06'3 7.3
2018-Aug-09 14:01N 50°05' W 125°09'2 3.0
2018-Aug-09 13:30N 50°06' W 125°12'0 0.0
2018-Aug-09 13:00N 50°06' W 125°12'0 0.0
2018-Aug-09 12:30N 50°06' W 125°12'0 0.0
2018-Aug-09 12:00N 50°06' W 125°12'0 0.0
2018-Aug-09 11:30N 50°06' W 125°12'0 0.0
2018-Aug-09 11:00N 50°06' W 125°12'0 0.0
2018-Aug-09 10:30N 50°06' W 125°12'0 0.0
2018-Aug-09 09:57N 50°06' W 125°12'0 0.0
2018-Aug-09 09:30N 50°06' W 125°12'0 0.0
2018-Aug-09 09:00N 50°06' W 125°12'0 0.0
2018-Aug-09 08:30N 50°06' W 125°12'0 0.0
2018-Aug-09 08:00N 50°06' W 125°12'0 0.0
2018-Aug-09 07:30N 50°06' W 125°12'0 0.0
2018-Aug-09 07:00N 50°06' W 125°12'0 0.0
2018-Aug-09 06:30N 50°06' W 125°12'0 0.0
2018-Aug-09 06:00N 50°06' W 125°12'0 0.0
2018-Aug-09 05:30N 50°06' W 125°12'0 0.0
2018-Aug-09 05:00N 50°06' W 125°12'0 0.0
2018-Aug-09 04:30N 50°06' W 125°12'0 0.0
2018-Aug-09 03:57N 50°06' W 125°12'0 0.0
2018-Aug-09 03:30N 50°06' W 125°12'0 0.0
2018-Aug-09 03:00N 50°06' W 125°12'0 0.0
2018-Aug-09 02:30N 50°06' W 125°12'0 0.0
2018-Aug-09 02:00N 50°06' W 125°12'0 0.0
2018-Aug-09 01:30N 50°06' W 125°12'0 0.0
2018-Aug-09 01:00N 50°06' W 125°12'0 0.0
2018-Aug-09 00:30N 50°06' W 125°12'0 0.0
2018-Aug-09 00:00N 50°06' W 125°12'0 0.0
2018-Aug-08 23:30N 50°06' W 125°12'1 1.4
2018-Aug-08 23:00N 50°06' W 125°12'3 6.4
2018-Aug-08 22:30N 50°09' W 125°09'3 6.3
2018-Aug-08 22:00N 50°12' W 125°08'3 6.7
2018-Aug-08 21:29N 50°15' W 125°11'2 0.0
2018-Aug-06 19:50N 50°16' W 125°13'  

Dump ship's entire track history